Observation data for Anton on 02/24/2021      Previous  Date  Next       Current Mesonet Observations  Soil Data  Daily Summary Page  Observations in Plain Language
KAOS 240600Z 25010KT 07/M10 A2988 RMK A01 T00731100  RH  028%=      5-min Rain = 0
KAOS 240605Z 25010KT 08/M10 A2987 RMK A01 T00761100  RH  027%=      5-min Rain = 0
KAOS 240610Z 25010KT 08/M10 A2988 RMK A01 T00761099  RH  027%=      5-min Rain = 0
KAOS 240615Z 26009KT 08/M10 A2988 RMK A01 T00761099  RH  028%=      5-min Rain = 0
KAOS 240620Z 26009KT 08/M10 A2988 RMK A01 T00781099  RH  027%=      5-min Rain = 0
KAOS 240625Z 27009KT 08/M10 A2988 RMK A01 T00791099  RH  027%=      5-min Rain = 0
KAOS 240630Z 30009KT 08/M10 A2988 RMK A01 T00751098  RH  028%=      5-min Rain = 0
KAOS 240635Z 28010KT 07/M10 A2988 RMK A01 T00681097  RH  030%=      5-min Rain = 0
KAOS 240640Z 28010KT 07/M10 A2989 RMK A01 T00671096  RH  030%=      5-min Rain = 0
KAOS 240645Z 28010KT 06/M10 A2989 RMK A01 T00631095  RH  031%=      5-min Rain = 0
KAOS 240650Z 27010KT 06/M10 A2989 RMK A01 T00611095  RH  032%=      5-min Rain = 0
KAOS 240655Z 27010KT 06/M10 A2988 RMK A01 T00591095  RH  032%=      5-min Rain = 0
KAOS 240700Z 26011KT 06/M09 A2988 RMK A01 T00571094  RH  032%=      5-min Rain = 0
KAOS 240705Z 27011KT 06/M09 A2988 RMK A01 T00591093  RH  032%=      5-min Rain = 0
KAOS 240710Z 27012KT 06/M09 A2989 RMK A01 T00621093  RH  032%=      5-min Rain = 0
KAOS 240715Z 28012KT 07/M09 A2989 RMK A01 T00651094  RH  031%=      5-min Rain = 0
KAOS 240720Z 27012KT 07/M09 A2989 RMK A01 T00661094  RH  031%=      5-min Rain = 0
KAOS 240725Z 27011KT 07/M10 A2989 RMK A01 T00661095  RH  031%=      5-min Rain = 0
KAOS 240730Z 27012KT 07/M09 A2989 RMK A01 T00691094  RH  030%=      5-min Rain = 0
KAOS 240735Z 27014KT 08/M09 A299 RMK A01 T00751094  RH  029%=      5-min Rain = 0
KAOS 240740Z 28013KT 08/M09 A299 RMK A01 T00751093  RH  029%=      5-min Rain = 0
KAOS 240745Z 29012KT 07/M09 A2991 RMK A01 T00701091  RH  031%=      5-min Rain = 0
KAOS 240750Z 29011KT 07/M09 A2992 RMK A01 T00651090  RH  032%=      5-min Rain = 0
KAOS 240755Z 30011KT 06/M09 A2993 RMK A01 T00611089  RH  033%=      5-min Rain = 0
KAOS 240800Z 30011KT 06/M09 A2993 RMK A01 T00591088  RH  034%=      5-min Rain = 0
KAOS 240805Z 30010KT 05/M09 A2993 RMK A01 T00541087  RH  035%=      5-min Rain = 0
KAOS 240810Z 29011KT 05/M09 A2994 RMK A01 T00541086  RH  035%=      5-min Rain = 0
KAOS 240815Z 29011KT 06/M09 A2994 RMK A01 T00561086  RH  035%=      5-min Rain = 0
KAOS 240820Z 28011KT 05/M09 A2993 RMK A01 T00531086  RH  036%=      5-min Rain = 0
KAOS 240825Z 29012KT 05/M09 A2994 RMK A01 T00501085  RH  037%=      5-min Rain = 0
KAOS 240830Z 31014KT 05/M09 A2995 RMK A01 T00541085  RH  036%=      5-min Rain = 0
KAOS 240835Z 32018G24KT 07/M08 A2996 RMK A01 T00651083  RH  034%=      5-min Rain = 0
KAOS 240840Z 32017KT 08/M08 A2996 RMK A01 T00811082  RH  031%=      5-min Rain = 0
KAOS 240845Z 33018KT 08/M08 A2996 RMK A01 T00811081  RH  031%=      5-min Rain = 0
KAOS 240850Z 33018G23KT 08/M08 A2996 RMK A01 T00791078  RH  032%=      5-min Rain = 0
KAOS 240855Z 33017KT 07/M07 A2996 RMK A01 T00741074  RH  034%=      5-min Rain = 0
KAOS 240900Z 34018KT 07/M07 A2997 RMK A01 T00711067  RH  037%=      5-min Rain = 0
KAOS 240905Z 34018KT 07/M06 A2997 RMK A01 T00691061  RH  039%=      5-min Rain = 0
KAOS 240910Z 34016KT 07/M06 A2998 RMK A01 T00671056  RH  041%=      5-min Rain = 0
KAOS 240915Z 35017KT 07/M05 A2998 RMK A01 T00681051  RH  043%=      5-min Rain = 0
KAOS 240920Z 35017KT 07/M05 A2998 RMK A01 T00681047  RH  044%=      5-min Rain = 0
KAOS 240925Z 35018G24KT 07/M05 A2998 RMK A01 T00681045  RH  045%=      5-min Rain = 0
KAOS 240930Z 35018G23KT 07/M04 A2998 RMK A01 T00671043  RH  045%=      5-min Rain = 0
KAOS 240935Z 35019KT 07/M04 A2998 RMK A01 T00661043  RH  046%=      5-min Rain = 0
KAOS 240940Z 35018KT 06/M04 A2998 RMK A01 T00641042  RH  047%=      5-min Rain = 0
KAOS 240945Z 35016G21KT 06/M04 A2999 RMK A01 T00601042  RH  048%=      5-min Rain = 0
KAOS 240950Z 35017G22KT 06/M04 A2999 RMK A01 T00591041  RH  049%=      5-min Rain = 0
KAOS 240955Z 36018G23KT 06/M04 A2999 RMK A01 T00611041  RH  048%=      5-min Rain = 0
KAOS 241000Z 36018KT 06/M04 A30 RMK A01 T00601041  RH  048%=      5-min Rain = 0
KAOS 241005Z 36017G23KT 06/M04 A30 RMK A01 T00601041  RH  048%=      5-min Rain = 0
KAOS 241010Z 35017G22KT 06/M04 A30 RMK A01 T00591042  RH  048%=      5-min Rain = 0
KAOS 241015Z 00018G23KT 06/M04 A30 RMK A01 T00581042  RH  049%=      5-min Rain = 0
KAOS 241020Z 00019G25KT 06/M04 A3001 RMK A01 T00591043  RH  048%=      5-min Rain = 0
KAOS 241025Z 00017KT 06/M04 A3001 RMK A01 T00581043  RH  048%=      5-min Rain = 0
KAOS 241030Z 36018G23KT 06/M04 A3001 RMK A01 T00571044  RH  048%=      5-min Rain = 0
KAOS 241035Z 36017G23KT 06/M05 A3002 RMK A01 T00561046  RH  048%=      5-min Rain = 0
KAOS 241040Z 00017G23KT 05/M05 A3002 RMK A01 T00541046  RH  049%=      5-min Rain = 0
KAOS 241045Z 36016KT 05/M05 A3003 RMK A01 T00531047  RH  049%=      5-min Rain = 0
KAOS 241050Z 35015KT 05/M05 A3003 RMK A01 T00511048  RH  049%=      5-min Rain = 0
KAOS 241055Z 36017G22KT 05/M05 A3003 RMK A01 T00511048  RH  049%=      5-min Rain = 0
KAOS 241100Z 36017KT 05/M05 A3004 RMK A01 T00521049  RH  048%=      5-min Rain = 0
KAOS 241105Z 36017KT 05/M05 A3004 RMK A01 T00521050  RH  048%=      5-min Rain = 0
KAOS 241110Z 35015KT 05/M05 A3004 RMK A01 T00491050  RH  049%=      5-min Rain = 0
KAOS 241115Z 34014KT 05/M05 A3004 RMK A01 T00451049  RH  050%=      5-min Rain = 0
KAOS 241120Z 34013KT 04/M05 A3005 RMK A01 T00441050  RH  051%=      5-min Rain = 0
KAOS 241125Z 35014KT 04/M05 A3005 RMK A01 T00411049  RH  052%=      5-min Rain = 0
KAOS 241130Z 35015G20KT 04/M05 A3005 RMK A01 T00411049  RH  052%=      5-min Rain = 0
KAOS 241135Z 35017KT 04/M05 A3005 RMK A01 T00421050  RH  051%=      5-min Rain = 0
KAOS 241140Z 35017KT 04/M05 A3006 RMK A01 T00421051  RH  051%=      5-min Rain = 0
KAOS 241145Z 35015KT 04/M05 A3006 RMK A01 T00411052  RH  051%=      5-min Rain = 0
KAOS 241150Z 35014KT 04/M05 A3006 RMK A01 T00381052  RH  052%=      5-min Rain = 0
KAOS 241155Z 35015KT 04/M05 A3006 RMK A01 T00371052  RH  052%=      5-min Rain = 0
KAOS 241200Z 34014KT 04/M05 A3007 RMK A01 T00351052  RH  053%=      5-min Rain = 0
KAOS 241205Z 34015G20KT 03/M05 A3007 RMK A01 T00341052  RH  053%=      5-min Rain = 0
KAOS 241210Z 35016KT 04/M05 A3007 RMK A01 T00371051  RH  053%=      5-min Rain = 0
KAOS 241215Z 36015KT 03/M05 A3007 RMK A01 T00341051  RH  054%=      5-min Rain = 0
KAOS 241220Z 34015KT 04/M05 A3008 RMK A01 T00351051  RH  054%=      5-min Rain = 0
KAOS 241225Z 34014KT 03/M05 A3008 RMK A01 T00341051  RH  054%=      5-min Rain = 0
KAOS 241230Z 34015KT 03/M05 A3008 RMK A01 T00341050  RH  054%=      5-min Rain = 0
KAOS 241235Z 35014KT 03/M05 A3008 RMK A01 T00311050  RH  055%=      5-min Rain = 0
KAOS 241240Z 35014KT 03/M05 A3008 RMK A01 T00291050  RH  056%=      5-min Rain = 0
KAOS 241245Z 35013KT 03/M05 A3008 RMK A01 T00271050  RH  057%=      5-min Rain = 0
KAOS 241250Z 34012KT 03/M05 A3009 RMK A01 T00271049  RH  057%=      5-min Rain = 0
KAOS 241255Z 34013KT 03/M05 A3009 RMK A01 T00281049  RH  057%=      5-min Rain = 0
KAOS 241300Z 34012KT 03/M05 A3009 RMK A01 T00281049  RH  057%=      5-min Rain = 0
KAOS 241305Z 34013G18KT 03/M05 A3009 RMK A01 T00271050  RH  057%=      5-min Rain = 0
KAOS 241310Z 35014KT 03/M05 A301 RMK A01 T00271050  RH  057%=      5-min Rain = 0
KAOS 241315Z 35014KT 03/M05 A301 RMK A01 T00261049  RH  058%=      5-min Rain = 0
KAOS 241320Z 34014KT 02/M05 A301 RMK A01 T00231050  RH  059%=      5-min Rain = 0
KAOS 241325Z 34013KT 02/M05 A301 RMK A01 T00221050  RH  059%=      5-min Rain = 0
KAOS 241330Z 34014KT 02/M05 A3011 RMK A01 T00211050  RH  059%=      5-min Rain = 0
KAOS 241335Z 34015KT 02/M05 A3011 RMK A01 T00221050  RH  059%=      5-min Rain = 0
KAOS 241340Z 34014KT 02/M05 A3012 RMK A01 T00221050  RH  059%=      5-min Rain = 0
KAOS 241345Z 34014KT 02/M05 A3012 RMK A01 T00231050  RH  059%=      5-min Rain = 0
KAOS 241350Z 34015KT 02/M05 A3012 RMK A01 T00231049  RH  059%=      5-min Rain = 0
KAOS 241355Z 34015KT 02/M05 A3013 RMK A01 T00241049  RH  059%=      5-min Rain = 0
KAOS 241400Z 34015KT 03/M05 A3013 RMK A01 T00251049  RH  058%=      5-min Rain = 0
KAOS 241405Z 35014KT 03/M05 A3013 RMK A01 T00261048  RH  058%=      5-min Rain = 0
KAOS 241410Z 35015KT 03/M05 A3014 RMK A01 T00281048  RH  058%=      5-min Rain = 0
KAOS 241415Z 35017KT 03/M05 A3014 RMK A01 T00301047  RH  057%=      5-min Rain = 0
KAOS 241420Z 35017G22KT 03/M05 A3015 RMK A01 T00321047  RH  057%=      5-min Rain = 0
KAOS 241425Z 35018G23KT 03/M05 A3015 RMK A01 T00331046  RH  056%=      5-min Rain = 0
KAOS 241430Z 35018G23KT 04/M05 A3015 RMK A01 T00351045  RH  056%=      5-min Rain = 0
KAOS 241435Z 35018G23KT 04/M04 A3015 RMK A01 T00361044  RH  056%=      5-min Rain = 0
KAOS 241440Z 35018G23KT 04/M04 A3016 RMK A01 T00381044  RH  056%=      5-min Rain = 0
KAOS 241445Z 36020G26KT 04/M04 A3016 RMK A01 T00381044  RH  055%=      5-min Rain = 0
KAOS 241450Z 35020G25KT 04/M04 A3016 RMK A01 T00401044  RH  054%=      5-min Rain = 0
KAOS 241455Z 36020KT 04/M05 A3016 RMK A01 T00411045  RH  054%=      5-min Rain = 0
KAOS 241500Z 00019G24KT 04/M05 A3016 RMK A01 T00441045  RH  053%=      5-min Rain = 0
KAOS 241505Z 01020G26KT 05/M05 A3017 RMK A01 T00451046  RH  052%=      5-min Rain = 0
KAOS 241510Z 36020G25KT 05/M05 A3017 RMK A01 T00471046  RH  051%=      5-min Rain = 0
KAOS 241515Z 00019G25KT 05/M05 A3018 RMK A01 T00491046  RH  051%=      5-min Rain = 0
KAOS 241520Z 00020G25KT 05/M05 A3018 RMK A01 T00501045  RH  051%=      5-min Rain = 0
KAOS 241525Z 00019KT 05/M05 A3019 RMK A01 T00511045  RH  050%=      5-min Rain = 0
KAOS 241530Z 36020G25KT 05/M05 A3019 RMK A01 T00531045  RH  049%=      5-min Rain = 0
KAOS 241535Z 00018KT 05/M05 A3019 RMK A01 T00541045  RH  049%=      5-min Rain = 0
KAOS 241540Z 36018G23KT 06/M05 A3019 RMK A01 T00561046  RH  048%=      5-min Rain = 0
KAOS 241545Z 00019G25KT 06/M05 A3019 RMK A01 T00571048  RH  047%=      5-min Rain = 0
KAOS 241550Z 00020KT 06/M05 A302 RMK A01 T00561049  RH  047%=      5-min Rain = 0
KAOS 241555Z 00019KT 06/M05 A302 RMK A01 T00581049  RH  046%=      5-min Rain = 0
KAOS 241600Z 00019KT 06/M05 A302 RMK A01 T00601049  RH  045%=      5-min Rain = 0
KAOS 241605Z 01018KT 06/M05 A302 RMK A01 T00621049  RH  045%=      5-min Rain = 0
KAOS 241610Z 00018KT 07/M05 A302 RMK A01 T00651048  RH  044%=      5-min Rain = 0
KAOS 241615Z 01017KT 07/M05 A302 RMK A01 T00661048  RH  044%=      5-min Rain = 0
KAOS 241620Z 01017KT 07/M05 A302 RMK A01 T00691047  RH  044%=      5-min Rain = 0
KAOS 241625Z 01017KT 07/M05 A302 RMK A01 T00701047  RH  043%=      5-min Rain = 0
KAOS 241630Z 01016KT 07/M05 A302 RMK A01 T00701047  RH  043%=      5-min Rain = 0
KAOS 241635Z 01017KT 07/M05 A302 RMK A01 T00731046  RH  043%=      5-min Rain = 0
KAOS 241640Z 02015KT 08/M05 A302 RMK A01 T00771046  RH  042%=      5-min Rain = 0
KAOS 241645Z 02016G22KT 08/M05 A302 RMK A01 T00781046  RH  042%=      5-min Rain = 0
KAOS 241650Z 03016G22KT 08/M05 A302 RMK A01 T00781046  RH  041%=      5-min Rain = 0
KAOS 241655Z 03016KT 08/M05 A302 RMK A01 T00811045  RH  041%=      5-min Rain = 0
KAOS 241700Z 02014G19KT 08/M05 A302 RMK A01 T00811045  RH  041%=      5-min Rain = 0
KAOS 241705Z 02014G20KT 09/M04 A302 RMK A01 T00871043  RH  040%=      5-min Rain = 0
KAOS 241710Z 03014G20KT 09/M04 A302 RMK A01 T00861044  RH  040%=      5-min Rain = 0
KAOS 241715Z 03014KT 09/M04 A3019 RMK A01 T00891044  RH  039%=      5-min Rain = 0
KAOS 241720Z 03015KT 09/M04 A3019 RMK A01 T00871044  RH  039%=      5-min Rain = 0
KAOS 241725Z 03013G19KT 09/M04 A3019 RMK A01 T00901044  RH  039%=      5-min Rain = 0
KAOS 241730Z 02015KT 09/M04 A3019 RMK A01 T00921044  RH  038%=      5-min Rain = 0
KAOS 241735Z 03014KT 09/M04 A3019 RMK A01 T00941044  RH  038%=      5-min Rain = 0
KAOS 241740Z 03014G20KT 10/M05 A3019 RMK A01 T00951045  RH  037%=      5-min Rain = 0
KAOS 241745Z 03013G18KT 10/M05 A3019 RMK A01 T00961046  RH  036%=      5-min Rain = 0
KAOS 241750Z 03014KT 10/M05 A3019 RMK A01 T01001045  RH  036%=      5-min Rain = 0
KAOS 241755Z 03013G19KT 10/M05 A3018 RMK A01 T01001046  RH  036%=      5-min Rain = 0
KAOS 241800Z 03013G18KT 10/M05 A3018 RMK A01 T01031045  RH  035%=      5-min Rain = 0
KAOS 241805Z 04013G19KT 11/M05 A3018 RMK A01 T01091048  RH  033%=      5-min Rain = 0
KAOS 241810Z 04012G17KT 11/M05 A3017 RMK A01 T01121051  RH  032%=      5-min Rain = 0
KAOS 241815Z 06013G19KT 11/M05 A3017 RMK A01 T01121051  RH  031%=      5-min Rain = 0
KAOS 241820Z 06014KT 11/M05 A3017 RMK A01 T01131052  RH  031%=      5-min Rain = 0
KAOS 241825Z 05015G20KT 11/M06 A3017 RMK A01 T01141056  RH  030%=      5-min Rain = 0
KAOS 241830Z 05012G18KT 12/M06 A3017 RMK A01 T01161056  RH  030%=      5-min Rain = 0
KAOS 241835Z 05014KT 12/M05 A3017 RMK A01 T01161053  RH  030%=      5-min Rain = 0
KAOS 241840Z 06013G19KT 12/M05 A3017 RMK A01 T01191052  RH  030%=      5-min Rain = 0
KAOS 241845Z 06012KT 12/M05 A3017 RMK A01 T01191053  RH  030%=      5-min Rain = 0
KAOS 241850Z 05011G19KT 12/M05 A3017 RMK A01 T01201052  RH  030%=      5-min Rain = 0
KAOS 241855Z 06010KT 12/M05 A3017 RMK A01 T01221051  RH  030%=      5-min Rain = 0
KAOS 241900Z 06011G20KT 12/M05 A3017 RMK A01 T01231051  RH  030%=      5-min Rain = 0
KAOS 241905Z 07010KT 12/M05 A3016 RMK A01 T01201051  RH  030%=      5-min Rain = 0
KAOS 241910Z 07008G13KT 12/M05 A3016 RMK A01 T01221052  RH  029%=      5-min Rain = 0
KAOS 241915Z 08007G15KT 12/M05 A3016 RMK A01 T01241052  RH  029%=      5-min Rain = 0
KAOS 241920Z 07012KT 13/M06 A3016 RMK A01 T01271057  RH  027%=      5-min Rain = 0
KAOS 241925Z 10007KT 13/M06 A3016 RMK A01 T01251058  RH  027%=      5-min Rain = 0
KAOS 241930Z 08009G15KT 13/M05 A3015 RMK A01 T01291053  RH  028%=      5-min Rain = 0
KAOS 241935Z 07009KT 13/M05 A3015 RMK A01 T01281053  RH  028%=      5-min Rain = 0
KAOS 241940Z 10008G13KT 13/M05 A3015 RMK A01 T01271053  RH  028%=      5-min Rain = 0
KAOS 241945Z 11005G10KT 13/M05 A3014 RMK A01 T01301052  RH  028%=      5-min Rain = 0
KAOS 241950Z 07009G16KT 14/M05 A3014 RMK A01 T01361051  RH  027%=      5-min Rain = 0
KAOS 241955Z 07011G16KT 14/M06 A3013 RMK A01 T01361056  RH  026%=      5-min Rain = 0
KAOS 242000Z 08011KT 14/M05 A3012 RMK A01 T01381054  RH  026%=      5-min Rain = 0
KAOS 242005Z 10009G14KT 13/M06 A3012 RMK A01 T01341055  RH  026%=      5-min Rain = 0
KAOS 242010Z 08008G14KT 14/M05 A3012 RMK A01 T01351054  RH  026%=      5-min Rain = 0
KAOS 242015Z 09009G14KT 14/M06 A3012 RMK A01 T01361057  RH  026%=      5-min Rain = 0
KAOS 242020Z 09007KT 14/M06 A3012 RMK A01 T01391055  RH  026%=      5-min Rain = 0
KAOS 242025Z 09011KT 14/M05 A3012 RMK A01 T01411054  RH  025%=      5-min Rain = 0
KAOS 242030Z 07008G14KT 14/M05 A3011 RMK A01 T01391054  RH  026%=      5-min Rain = 0
KAOS 242035Z 07010G16KT 14/M05 A3011 RMK A01 T01401054  RH  026%=      5-min Rain = 0
KAOS 242040Z 10009G16KT 14/M05 A3011 RMK A01 T01401053  RH  026%=      5-min Rain = 0
KAOS 242045Z 09008G13KT 14/M05 A3011 RMK A01 T01401053  RH  026%=      5-min Rain = 0
KAOS 242050Z 10009KT 14/M05 A3011 RMK A01 T01441053  RH  025%=      5-min Rain = 0
KAOS 242055Z 09008KT 14/M06 A301 RMK A01 T01401055  RH  025%=      5-min Rain = 0
KAOS 242100Z 07009KT 14/M05 A301 RMK A01 T01421054  RH  025%=      5-min Rain = 0
KAOS 242105Z 06008KT 14/M06 A301 RMK A01 T01421055  RH  025%=      5-min Rain = 0
KAOS 242110Z 08009G15KT 14/M06 A301 RMK A01 T01441055  RH  025%=      5-min Rain = 0
KAOS 242115Z 09010G16KT 15/M06 A301 RMK A01 T01481056  RH  024%=      5-min Rain = 0
KAOS 242120Z 09010G15KT 15/M06 A301 RMK A01 T01481056  RH  024%=      5-min Rain = 0
KAOS 242125Z 10011KT 15/M06 A301 RMK A01 T01461058  RH  024%=      5-min Rain = 0
KAOS 242130Z 11012KT 15/M06 A301 RMK A01 T01471058  RH  024%=      5-min Rain = 0
KAOS 242135Z 09009G15KT 15/M06 A301 RMK A01 T01471057  RH  024%=      5-min Rain = 0
KAOS 242140Z 13010G16KT 15/M06 A301 RMK A01 T01521056  RH  023%=      5-min Rain = 0
KAOS 242145Z 11009KT 15/M06 A301 RMK A01 T01511056  RH  023%=      5-min Rain = 0
KAOS 242150Z 12009KT 15/M06 A301 RMK A01 T01471057  RH  024%=      5-min Rain = 0
KAOS 242155Z 12011G16KT 15/M06 A301 RMK A01 T01471056  RH  024%=      5-min Rain = 0
KAOS 242200Z 09010G15KT 15/M06 A301 RMK A01 T01451056  RH  024%=      5-min Rain = 0
KAOS 242205Z 11010KT 15/M06 A301 RMK A01 T01461057  RH  024%=      5-min Rain = 0
KAOS 242210Z 11011KT 15/M06 A3009 RMK A01 T01461056  RH  024%=      5-min Rain = 0
KAOS 242215Z 11009KT 14/M06 A3009 RMK A01 T01441056  RH  025%=      5-min Rain = 0
KAOS 242220Z 11012G18KT 15/M05 A3009 RMK A01 T01451054  RH  025%=      5-min Rain = 0
KAOS 242225Z 11010KT 15/M05 A3008 RMK A01 T01461054  RH  025%=      5-min Rain = 0
KAOS 242230Z 11011KT 15/M05 A3008 RMK A01 T01471054  RH  025%=      5-min Rain = 0
KAOS 242235Z 11009KT 15/M05 A3009 RMK A01 T01461054  RH  025%=      5-min Rain = 0
KAOS 242240Z 09009G15KT 14/M05 A3009 RMK A01 T01431054  RH  025%=      5-min Rain = 0
KAOS 242245Z 10011KT 15/M05 A3009 RMK A01 T01461052  RH  025%=      5-min Rain = 0
KAOS 242250Z 10010KT 15/M05 A3009 RMK A01 T01461052  RH  025%=      5-min Rain = 0
KAOS 242255Z 11007KT 15/M05 A3009 RMK A01 T01461050  RH  025%=      5-min Rain = 0
KAOS 242300Z 10007KT 14/M05 A3009 RMK A01 T01441051  RH  026%=      5-min Rain = 0
KAOS 242305Z 13009KT 15/M05 A3009 RMK A01 T01461051  RH  025%=      5-min Rain = 0
KAOS 242310Z 12008KT 15/M05 A3009 RMK A01 T01451050  RH  026%=      5-min Rain = 0
KAOS 242315Z 13009KT 15/M05 A3009 RMK A01 T01451050  RH  026%=      5-min Rain = 0
KAOS 242320Z 12009KT 15/M05 A3009 RMK A01 T01451050  RH  026%=      5-min Rain = 0
KAOS 242325Z 11009G14KT 14/M05 A3009 RMK A01 T01441051  RH  026%=      5-min Rain = 0
KAOS 242330Z 11008KT 14/M05 A301 RMK A01 T01431052  RH  026%=      5-min Rain = 0
KAOS 242335Z 09010KT 14/M05 A3009 RMK A01 T01421053  RH  026%=      5-min Rain = 0
KAOS 242340Z 11010KT 14/M05 A301 RMK A01 T01401053  RH  026%=      5-min Rain = 0
KAOS 242345Z 12008KT 14/M05 A301 RMK A01 T01421053  RH  026%=      5-min Rain = 0
KAOS 242350Z 10009KT 14/M05 A301 RMK A01 T01421053  RH  026%=      5-min Rain = 0
KAOS 242355Z 10011KT 14/M06 A301 RMK A01 T01381055  RH  026%=      5-min Rain = 0
KAOS 250000Z 09009KT 14/M06 A301 RMK A01 T01371055  RH  026%=      5-min Rain = 0
KAOS 250005Z 08010KT 14/M06 A301 RMK A01 T01351056  RH  026%=      5-min Rain = 0
KAOS 250010Z 09010KT 13/M06 A301 RMK A01 T01341055  RH  026%=      5-min Rain = 0
KAOS 250015Z 09010KT 13/M06 A301 RMK A01 T01321056  RH  027%=      5-min Rain = 0
KAOS 250020Z 09011KT 13/M06 A301 RMK A01 T01291057  RH  027%=      5-min Rain = 0
KAOS 250025Z 09010KT 13/M06 A3011 RMK A01 T01261058  RH  027%=      5-min Rain = 0
KAOS 250030Z 09010KT 12/M06 A3011 RMK A01 T01221058  RH  028%=      5-min Rain = 0
KAOS 250035Z 09009KT 12/M06 A3011 RMK A01 T01181058  RH  029%=      5-min Rain = 0
KAOS 250040Z 09009KT 11/M06 A3011 RMK A01 T01141058  RH  029%=      5-min Rain = 0
KAOS 250045Z 09010KT 11/M06 A3011 RMK A01 T01111058  RH  030%=      5-min Rain = 0
KAOS 250050Z 08009KT 11/M06 A3011 RMK A01 T01081057  RH  031%=      5-min Rain = 0
KAOS 250055Z 08009KT 11/M06 A3012 RMK A01 T01061057  RH  032%=      5-min Rain = 0
KAOS 250100Z 08010KT 10/M06 A3012 RMK A01 T01041057  RH  032%=      5-min Rain = 0
KAOS 250105Z 08010KT 10/M06 A3012 RMK A01 T01021057  RH  032%=      5-min Rain = 0
KAOS 250110Z 08009KT 10/M06 A3013 RMK A01 T01001057  RH  033%=      5-min Rain = 0
KAOS 250115Z 08009KT 10/M06 A3013 RMK A01 T00971056  RH  033%=      5-min Rain = 0
KAOS 250120Z 08009KT 10/M06 A3013 RMK A01 T00951056  RH  034%=      5-min Rain = 0
KAOS 250125Z 08009KT 09/M06 A3013 RMK A01 T00941056  RH  034%=      5-min Rain = 0
KAOS 250130Z 08009KT 09/M06 A3013 RMK A01 T00911056  RH  035%=      5-min Rain = 0
KAOS 250135Z 08009KT 09/M06 A3014 RMK A01 T00881055  RH  036%=      5-min Rain = 0
KAOS 250140Z 07009KT 09/M06 A3014 RMK A01 T00861055  RH  036%=      5-min Rain = 0
KAOS 250145Z 07010KT 08/M06 A3014 RMK A01 T00831055  RH  037%=      5-min Rain = 0
KAOS 250150Z 08010KT 08/M06 A3014 RMK A01 T00821055  RH  037%=      5-min Rain = 0
KAOS 250155Z 08010KT 08/M06 A3014 RMK A01 T00821055  RH  038%=      5-min Rain = 0
KAOS 250200Z 08010KT 08/M06 A3014 RMK A01 T00811055  RH  038%=      5-min Rain = 0
KAOS 250205Z 08010KT 08/M06 A3014 RMK A01 T00791055  RH  038%=      5-min Rain = 0
KAOS 250210Z 08010KT 08/M06 A3014 RMK A01 T00761056  RH  039%=      5-min Rain = 0
KAOS 250215Z 08010KT 07/M06 A3014 RMK A01 T00741056  RH  039%=      5-min Rain = 0
KAOS 250220Z 08010KT 07/M06 A3015 RMK A01 T00721056  RH  040%=      5-min Rain = 0
KAOS 250225Z 07010KT 07/M06 A3015 RMK A01 T00711056  RH  040%=      5-min Rain = 0
KAOS 250230Z 07009KT 07/M06 A3015 RMK A01 T00661056  RH  041%=      5-min Rain = 0
KAOS 250235Z 08010KT 07/M06 A3015 RMK A01 T00671055  RH  041%=      5-min Rain = 0
KAOS 250240Z 08009KT 07/M06 A3015 RMK A01 T00661055  RH  042%=      5-min Rain = 0
KAOS 250245Z 08009KT 07/M05 A3015 RMK A01 T00651054  RH  043%=      5-min Rain = 0
KAOS 250250Z 08009KT 06/M05 A3015 RMK A01 T00641053  RH  043%=      5-min Rain = 0
KAOS 250255Z 08010KT 06/M05 A3015 RMK A01 T00631054  RH  043%=      5-min Rain = 0
KAOS 250300Z 09010KT 06/M05 A3015 RMK A01 T00631054  RH  043%=      5-min Rain = 0
KAOS 250305Z 09010KT 06/M06 A3015 RMK A01 T00611055  RH  043%=      5-min Rain = 0
KAOS 250310Z 09010KT 06/M06 A3015 RMK A01 T00561056  RH  044%=      5-min Rain = 0
KAOS 250315Z 09011KT 06/M06 A3015 RMK A01 T00551057  RH  044%=      5-min Rain = 0
KAOS 250320Z 09011KT 05/M06 A3015 RMK A01 T00541056  RH  045%=      5-min Rain = 0
KAOS 250325Z 09011KT 05/M06 A3015 RMK A01 T00541056  RH  045%=      5-min Rain = 0
KAOS 250330Z 08011KT 05/M06 A3015 RMK A01 T00541056  RH  045%=      5-min Rain = 0
KAOS 250335Z 09011KT 06/M06 A3016 RMK A01 T00551056  RH  045%=      5-min Rain = 0
KAOS 250340Z 09011KT 05/M06 A3016 RMK A01 T00541056  RH  045%=      5-min Rain = 0
KAOS 250345Z 08011KT 05/M06 A3016 RMK A01 T00541056  RH  045%=      5-min Rain = 0
KAOS 250350Z 08011KT 05/M06 A3016 RMK A01 T00541056  RH  045%=      5-min Rain = 0
KAOS 250355Z 09011KT 05/M06 A3016 RMK A01 T00541056  RH  045%=      5-min Rain = 0
KAOS 250400Z 09011KT 05/M06 A3016 RMK A01 T00531056  RH  045%=      5-min Rain = 0
KAOS 250405Z 08011KT 05/M06 A3016 RMK A01 T00521056  RH  046%=      5-min Rain = 0
KAOS 250410Z 08011KT 05/M06 A3017 RMK A01 T00511057  RH  046%=      5-min Rain = 0
KAOS 250415Z 08010KT 05/M06 A3017 RMK A01 T00521058  RH  045%=      5-min Rain = 0
KAOS 250420Z 08011KT 05/M06 A3017 RMK A01 T00511059  RH  045%=      5-min Rain = 0
KAOS 250425Z 08011KT 05/M06 A3017 RMK A01 T00511059  RH  045%=      5-min Rain = 0
KAOS 250430Z 09009KT 05/M06 A3017 RMK A01 T00481059  RH  046%=      5-min Rain = 0
KAOS 250435Z 09009KT 04/M06 A3017 RMK A01 T00441059  RH  047%=      5-min Rain = 0
KAOS 250440Z 09009KT 04/M06 A3017 RMK A01 T00421060  RH  048%=      5-min Rain = 0
KAOS 250445Z 09010KT 04/M06 A3017 RMK A01 T00411060  RH  048%=      5-min Rain = 0
KAOS 250450Z 09010KT 04/M06 A3017 RMK A01 T00401060  RH  048%=      5-min Rain = 0
KAOS 250455Z 09010KT 04/M06 A3017 RMK A01 T00401061  RH  048%=      5-min Rain = 0
KAOS 250500Z 09011KT 04/M06 A3018 RMK A01 T00401061  RH  048%=      5-min Rain = 0
KAOS 250505Z 09010KT 04/M06 A3018 RMK A01 T00401061  RH  048%=      5-min Rain = 0
KAOS 250510Z 09010KT 04/M06 A3018 RMK A01 T00391062  RH  048%=      5-min Rain = 0
KAOS 250515Z 09010KT 04/M06 A3018 RMK A01 T00401063  RH  047%=      5-min Rain = 0
KAOS 250520Z 10009KT 04/M06 A3018 RMK A01 T00371063  RH  048%=      5-min Rain = 0
KAOS 250525Z 10010KT 04/M06 A3018 RMK A01 T00361063  RH  048%=      5-min Rain = 0
KAOS 250530Z 10011KT 04/M06 A3018 RMK A01 T00381063  RH  048%=      5-min Rain = 0
KAOS 250535Z 10012KT 04/M06 A3017 RMK A01 T00381064  RH  047%=      5-min Rain = 0
KAOS 250540Z 10012KT 04/M06 A3017 RMK A01 T00381064  RH  048%=      5-min Rain = 0
KAOS 250545Z 11011KT 04/M06 A3018 RMK A01 T00381064  RH  048%=      5-min Rain = 0
KAOS 250550Z 10012KT 04/M06 A3018 RMK A01 T00391064  RH  047%=      5-min Rain = 0
KAOS 250555Z 10011KT 04/M06 A3018 RMK A01 T00371064  RH  048%=      5-min Rain = 0

Page generated in 0.0101 seconds.